Time;durP1;ratioP1;P1;durP2;ratioP2;P2;SDS_P1;SDS_P2;PMS_P1;PMS_P2;Temp;Humidity;BMP_temperature;BMP_pressure;BME280_temperature;BME280_humidity;BME280_pressure;Samples;Min_cycle;Max_cycle;Signal;HPM_P1;HPM_P2
2023/10/07 00:00:59;;;;;;;13.63;7.23;;;;;;;14.23;47.61;100514.47;10487696;28;20227;-69
2023/10/07 00:06:01;;;;;;;18.13;7.73;;;;;;;13.78;47.42;100605.97;10487879;28;20234;-69
2023/10/07 00:11:11;;;;;;;13.13;6.97;;;;;;;12.69;50.08;100623.22;10490193;28;20223;-69
2023/10/07 00:16:14;;;;;;;13.43;7.50;;;;;;;12.56;49.91;100655.19;10498201;28;20329;-69
2023/10/07 00:21:24;;;;;;;13.93;8.53;;;;;;;12.89;48.97;100595.88;10498047;28;20234;-69
2023/10/07 00:26:26;;;;;;;15.10;8.07;;;;;;;12.05;50.51;100685.06;10479523;28;20223;-69
2023/10/07 00:31:32;;;;;;;12.17;7.57;;;;;;;11.77;50.95;100665.84;10501307;28;20446;-69
2023/10/07 00:52:12;;;;;;;10.47;7.10;;;;;;;11.39;52.36;100542.28;10497272;28;20235;-69
2023/10/07 00:57:22;;;;;;;14.33;7.00;;;;;;;10.28;54.78;100610.47;10493138;28;20223;-69
2023/10/07 01:02:30;;;;;;;15.50;7.03;;;;;;;10.54;54.21;100578.25;10494706;28;20239;-69
2023/10/07 01:07:34;;;;;;;12.47;6.83;;;;;;;9.59;56.42;100618.47;10487516;28;20890;-69
2023/10/07 01:12:38;;;;;;;12.63;7.93;;;;;;;10.16;55.27;100543.06;10477216;28;20258;-69
2023/10/07 01:17:41;;;;;;;13.73;7.40;;;;;;;9.90;55.67;100537.81;10474796;28;20219;-69
2023/10/07 01:23:01;;;;;;;14.07;7.30;;;;;;;10.13;54.64;100525.50;10493385;28;20241;-69
2023/10/07 01:28:04;;;;;;;13.83;8.10;;;;;;;9.83;55.67;100540.28;10491598;28;20753;-69
2023/10/07 01:33:24;;;;;;;17.83;8.20;;;;;;;9.89;55.48;100518.25;10495062;28;20239;-69
2023/10/07 01:38:26;;;;;;;13.60;7.40;;;;;;;10.17;55.14;100474.38;10475629;28;20255;-68
2023/10/07 01:43:28;;;;;;;13.33;7.20;;;;;;;10.29;53.91;100625.50;10496001;28;20806;-68
2023/10/07 01:48:29;;;;;;;15.43;8.00;;;;;;;11.28;52.52;100471.13;10487463;28;20325;-69
2023/10/07 01:53:34;;;;;;;16.07;7.60;;;;;;;10.43;54.22;100541.13;10476418;28;20227;-69
2023/10/07 01:58:36;;;;;;;13.47;7.90;;;;;;;10.46;53.82;100565.72;10477624;28;20300;-67
2023/10/07 02:03:37;;;;;;;13.33;7.77;;;;;;;10.31;53.68;100624.38;10489375;28;20988;-67
2023/10/07 02:08:39;;;;;;;12.67;7.47;;;;;;;10.88;53.64;100441.63;10492510;28;20199;-67
2023/10/07 02:13:41;;;;;;;12.33;7.50;;;;;;;9.51;56.23;100579.16;10491460;28;20321;-67
2023/10/07 02:18:44;;;;;;;12.37;6.90;;;;;;;9.87;54.18;100655.75;10473986;28;20235;-67
2023/10/07 02:23:47;;;;;;;9.47;6.40;;;;;;;10.72;52.81;100577.28;10491546;28;20231;-66
2023/10/07 02:28:51;;;;;;;11.43;6.17;;;;;;;10.91;52.46;100552.06;10489601;28;20258;-66
2023/10/07 02:33:53;;;;;;;11.47;6.30;;;;;;;10.22;52.89;100681.50;10474194;28;20227;-67
2023/10/07 02:38:56;;;;;;;12.43;7.17;;;;;;;10.12;53.71;100611.25;10488399;28;20734;-66
2023/10/07 02:44:15;;;;;;;10.60;5.83;;;;;;;10.85;52.13;100565.09;10492122;28;20324;-66
2023/10/07 02:49:20;;;;;;;10.47;6.37;;;;;;;10.47;52.86;100602.16;10485765;28;20306;-66
2023/10/07 02:54:31;;;;;;;9.33;5.33;;;;;;;10.28;53.96;100575.72;10490681;28;20611;-66
2023/10/07 02:59:41;;;;;;;11.10;6.50;;;;;;;10.36;52.86;100626.56;10486591;28;20713;-67
2023/10/07 03:05:03;;;;;;;11.73;6.07;;;;;;;10.34;53.12;100617.84;10489571;28;20774;-67
2023/10/07 03:10:16;;;;;;;12.57;6.10;;;;;;;10.64;52.86;100548.66;10488014;28;20314;-66
2023/10/07 03:15:39;;;;;;;11.33;5.73;;;;;;;10.82;52.39;100543.19;10493308;28;20236;-67
2023/10/07 03:20:48;;;;;;;12.33;6.07;;;;;;;10.13;53.45;100674.44;10490794;28;20229;-67
2023/10/07 03:30:57;;;;;;;14.23;6.70;;;;;;;10.17;53.50;100621.47;10495889;28;20990;-67
2023/10/07 03:41:09;;;;;;;9.87;5.63;;;;;;;10.05;53.41;100619.06;10494988;28;20224;-67
2023/10/07 03:46:11;;;;;;;9.90;5.43;;;;;;;10.03;53.92;100572.13;10495308;28;20227;-66
2023/10/07 03:51:13;;;;;;;10.60;5.70;;;;;;;9.53;54.53;100627.97;10500305;28;20614;-67
2023/10/07 03:56:15;;;;;;;11.53;5.60;;;;;;;9.84;54.53;100571.38;10497206;28;20227;-66
2023/10/07 04:01:16;;;;;;;10.50;5.83;;;;;;;10.06;52.89;100619.94;10502843;28;20603;-67
2023/10/07 04:06:21;;;;;;;10.50;5.53;;;;;;;9.93;53.35;100617.69;10474413;28;20231;-66
2023/10/07 04:11:26;;;;;;;10.57;6.00;;;;;;;8.82;55.40;100762.28;10501206;28;20231;-67
2023/10/07 04:16:30;;;;;;;10.70;5.27;;;;;;;9.38;55.02;100638.38;10499310;28;20238;-66
2023/10/07 04:21:39;;;;;;;9.23;5.47;;;;;;;9.46;54.45;100660.81;10508595;28;20232;-67
2023/10/07 04:26:51;;;;;;;8.47;5.67;;;;;;;10.41;53.29;100548.47;10489116;28;20227;-66
2023/10/07 04:31:54;;;;;;;8.87;5.67;;;;;;;9.27;55.13;100708.06;10506920;28;20322;-67
2023/10/07 04:42:07;;;;;;;12.67;6.00;;;;;;;9.91;53.61;100649.94;10506585;28;20280;-67
2023/10/07 04:52:40;;;;;;;9.00;5.87;;;;;;;9.62;53.65;100722.38;10508443;28;20238;-67
2023/10/07 04:57:56;;;;;;;13.73;6.20;;;;;;;9.68;54.33;100638.91;10506748;28;20250;-68
2023/10/07 05:03:01;;;;;;;9.20;6.20;;;;;;;9.65;54.35;100662.44;10508546;28;20241;-68
2023/10/07 05:08:10;;;;;;;9.73;6.00;;;;;;;10.23;53.08;100600.25;10488028;28;20309;-68
2023/10/07 05:13:12;;;;;;;9.00;5.73;;;;;;;8.97;55.60;100760.00;10509692;28;20236;-69
2023/10/07 05:18:16;;;;;;;11.73;5.87;;;;;;;8.84;56.29;100747.81;10498308;28;20234;-68
2023/10/07 05:23:18;;;;;;;10.93;5.83;;;;;;;8.37;57.67;100771.91;10503438;28;20230;-68
2023/10/07 05:28:21;;;;;;;9.33;5.87;;;;;;;9.34;56.43;100588.91;10485990;28;20237;-68
2023/10/07 05:33:25;;;;;;;10.87;6.33;;;;;;;9.25;56.44;100618.38;10511075;28;20244;-68
2023/10/07 05:38:28;;;;;;;7.70;5.30;;;;;;;9.52;55.76;100620.94;10502990;28;20207;-67
2023/10/07 05:43:31;;;;;;;9.67;6.37;;;;;;;9.59;56.00;100607.78;10506123;28;20623;-68
2023/10/07 05:48:37;;;;;;;8.83;5.97;;;;;;;9.53;56.31;100600.41;10501192;28;20234;-68
2023/10/07 05:53:45;;;;;;;9.37;6.27;;;;;;;8.45;58.27;100749.81;10507232;28;20226;-68
2023/10/07 05:58:48;;;;;;;10.27;6.60;;;;;;;9.45;57.18;100587.84;10499835;28;20732;-68
2023/10/07 06:03:52;;;;;;;10.90;6.73;;;;;;;9.13;57.07;100700.56;10486692;28;20322;-68
2023/10/07 06:08:53;;;;;;;10.13;5.50;;;;;;;9.20;57.20;100664.28;10498464;28;20234;-68
2023/10/07 06:13:55;;;;;;;10.17;5.97;;;;;;;9.67;56.02;100649.75;10503985;28;20319;-68
2023/10/07 06:18:58;;;;;;;11.20;6.17;;;;;;;10.05;55.60;100612.91;10499407;28;20234;-68
2023/10/07 06:24:04;;;;;;;9.80;6.10;;;;;;;9.65;56.06;100675.78;10482894;28;20999;-68
2023/10/07 06:29:18;;;;;;;10.40;6.50;;;;;;;9.36;57.33;100667.06;10484422;28;20309;-68
2023/10/07 06:34:25;;;;;;;7.30;5.57;;;;;;;10.12;55.65;100604.09;10479404;28;20259;-68
2023/10/07 06:39:27;;;;;;;7.47;5.43;;;;;;;9.30;57.29;100710.44;10496208;28;20246;-68
2023/10/07 06:44:30;;;;;;;10.40;5.67;;;;;;;9.84;56.53;100674.75;10501280;28;21006;-68
2023/10/07 06:49:39;;;;;;;8.87;6.23;;;;;;;9.63;57.54;100667.09;10499383;28;20745;-67
2023/10/07 06:54:41;;;;;;;10.03;5.80;;;;;;;9.26;58.26;100729.56;10478308;28;20310;-67
2023/10/07 07:00:08;;;;;;;11.83;6.70;;;;;;;10.14;55.97;100642.19;10503922;28;20859;-68
2023/10/07 07:05:16;;;;;;;12.60;6.67;;;;;;;10.29;55.95;100596.94;10496769;28;20337;-68
2023/10/07 07:10:31;;;;;;;8.73;5.77;;;;;;;10.01;56.20;100646.31;10481313;28;20237;-68
2023/10/07 07:15:37;;;;;;;8.77;6.00;;;;;;;10.70;54.55;100641.69;10491866;28;20237;-68
2023/10/07 07:20:49;;;;;;;7.90;5.50;;;;;;;10.58;54.90;100665.25;10483217;28;20230;-68
2023/10/07 07:31:26;;;;;;;8.70;5.77;;;;;;;11.11;54.70;100668.56;10487410;28;20224;-68
2023/10/07 07:36:47;;;;;;;9.93;6.37;;;;;;;11.15;54.51;100652.97;10493276;28;20242;-68
2023/10/07 07:41:55;;;;;;;11.33;6.03;;;;;;;11.35;54.29;100674.91;10502197;28;20222;-67
2023/10/07 07:46:59;;;;;;;8.07;5.83;;;;;;;11.30;54.61;100640.59;10495534;28;20334;-68
2023/10/07 07:52:02;;;;;;;9.20;5.93;;;;;;;10.98;54.06;100827.03;10497679;28;20592;-67
2023/10/07 07:57:04;;;;;;;8.47;5.70;;;;;;;10.74;54.84;100813.53;10501814;28;20306;-69
2023/10/07 08:02:12;;;;;;;7.60;5.30;;;;;;;11.66;53.50;100661.69;10505019;28;20242;-69
2023/10/07 08:07:20;;;;;;;7.73;5.27;;;;;;;11.94;52.58;100766.72;10497655;28;20706;-70
2023/10/07 08:12:31;;;;;;;10.03;4.93;;;;;;;11.88;52.60;100727.19;10506093;28;20227;-69
2023/10/07 08:17:33;;;;;;;7.83;5.00;;;;;;;11.28;53.57;100830.16;10480996;28;20246;-70
2023/10/07 08:22:37;;;;;;;10.37;5.10;;;;;;;11.49;53.96;100770.75;10504909;28;20239;-70
2023/10/07 08:27:45;;;;;;;9.47;4.90;;;;;;;12.53;51.36;100804.03;10496205;28;20234;-70
2023/10/07 08:32:48;;;;;;;6.97;4.50;;;;;;;11.56;52.67;100905.78;10501082;28;20235;-70
2023/10/07 08:37:50;;;;;;;9.37;4.77;;;;;;;12.77;51.42;100817.53;10502468;28;20221;-70
2023/10/07 08:42:58;;;;;;;10.03;5.53;;;;;;;12.73;51.52;100831.31;10489172;28;20644;-70
2023/10/07 08:48:15;;;;;;;9.60;5.27;;;;;;;12.83;51.07;100828.44;10484866;28;20231;-70
2023/10/07 08:53:17;;;;;;;8.50;4.67;;;;;;;12.92;51.48;100823.84;10491670;28;20260;-71
2023/10/07 08:58:27;;;;;;;8.10;4.83;;;;;;;12.71;51.97;100798.44;10489205;28;20226;-71
2023/10/07 09:03:29;;;;;;;8.17;5.23;;;;;;;13.24;50.19;100849.72;10497971;28;20745;-70
2023/10/07 09:08:33;;;;;;;7.77;4.47;;;;;;;12.81;51.50;100900.28;10505165;28;20234;-70
2023/10/07 09:13:38;;;;;;;7.43;5.03;;;;;;;12.66;51.99;100873.31;10505814;28;20245;-71
2023/10/07 09:18:44;;;;;;;8.13;4.67;;;;;;;13.48;51.00;100796.88;10503789;28;20195;-71
2023/10/07 09:23:51;;;;;;;8.53;5.27;;;;;;;13.26;51.45;100885.34;10504064;28;20247;-71
2023/10/07 09:29:13;;;;;;;13.53;5.10;;;;;;;14.35;50.06;100755.22;10501957;28;20702;-70
2023/10/07 09:34:30;;;;;;;10.47;4.47;;;;;;;13.72;51.56;100835.38;10505782;28;20227;-71
2023/10/07 09:39:34;;;;;;;7.17;4.20;;;;;;;15.04;49.08;100760.25;10483940;28;20235;-70
2023/10/07 09:44:38;;;;;;;7.40;4.53;;;;;;;14.51;49.57;100843.94;10504962;28;20238;-70
2023/10/07 09:49:41;;;;;;;7.73;4.43;;;;;;;14.07;50.84;100838.47;10499477;28;20242;-71
2023/10/07 09:54:55;;;;;;;8.60;4.93;;;;;;;15.07;48.66;100869.59;10496025;28;20240;-70
2023/10/07 10:05:35;;;;;;;9.00;4.27;;;;;;;15.60;48.09;100783.88;10497527;28;20230;-70
2023/10/07 10:10:46;;;;;;;6.67;3.90;;;;;;;14.97;48.07;100875.25;10506527;28;20325;-70
2023/10/07 10:15:53;;;;;;;5.87;3.90;;;;;;;15.65;47.35;100829.16;10497157;28;20222;-68
2023/10/07 10:21:09;;;;;;;6.90;4.20;;;;;;;16.17;46.80;100808.22;10502434;28;20235;-68
2023/10/07 10:26:20;;;;;;;6.17;3.83;;;;;;;15.65;47.40;100835.38;10489300;28;21776;-68
2023/10/07 10:31:24;;;;;;;7.87;3.87;;;;;;;15.73;46.78;100847.94;10501061;28;20703;-69
2023/10/07 10:36:26;;;;;;;6.57;4.30;;;;;;;15.21;46.79;100898.38;10491406;28;20241;-71
2023/10/07 10:41:32;;;;;;;6.33;3.93;;;;;;;15.51;46.60;100839.78;10500916;28;20317;-68
2023/10/07 10:46:44;;;;;;;7.43;4.03;;;;;;;15.55;46.78;100855.63;10492061;28;20235;-69
2023/10/07 10:51:51;;;;;;;7.83;3.77;;;;;;;15.50;47.08;100851.63;10503110;28;20237;-69
2023/10/07 10:56:58;;;;;;;6.73;3.83;;;;;;;15.82;46.49;100854.84;10496655;28;20270;-69
2023/10/07 11:06:14;;;;;;;6.47;3.77;;;;;;;14.87;48.14;100785.78;10463965;28;21408;-69
2023/10/07 11:11:17;;;;;;;5.43;3.70;;;;;;;14.73;47.24;100865.56;10468809;28;20223;-69
2023/10/07 11:16:19;;;;;;;6.77;3.80;;;;;;;15.33;46.64;100775.53;10466915;28;20231;-69
2023/10/07 11:21:23;;;;;;;5.60;3.63;;;;;;;14.54;47.27;100842.69;10464757;28;20315;-69
2023/10/07 11:26:26;;;;;;;7.17;3.37;;;;;;;14.74;46.95;100834.91;10460000;28;20231;-69
2023/10/07 11:31:30;;;;;;;6.67;3.73;;;;;;;14.97;46.36;100813.28;10461366;28;20242;-69
2023/10/07 11:36:46;;;;;;;6.43;3.87;;;;;;;15.44;46.12;100771.47;10462432;28;20241;-69
2023/10/07 11:41:47;;;;;;;9.43;4.17;;;;;;;15.09;46.46;100789.34;10461015;28;20227;-69
2023/10/07 11:46:50;;;;;;;7.20;3.63;;;;;;;15.59;45.82;100733.66;10462238;28;20234;-69
2023/10/07 11:51:54;;;;;;;7.00;4.23;;;;;;;15.04;45.71;100851.09;10460731;28;20779;-69
2023/10/07 11:56:55;;;;;;;8.50;4.20;;;;;;;15.44;45.92;100786.81;10462181;28;20232;-69
2023/10/07 12:01:57;;;;;;;7.57;3.60;;;;;;;15.81;45.40;100815.41;10465740;28;20266;-69
2023/10/07 12:06:59;;;;;;;5.90;4.00;;;;;;;16.26;44.73;100766.53;10462127;28;20224;-69
2023/10/07 12:12:02;;;;;;;6.93;3.70;;;;;;;15.67;45.99;100789.34;10462927;28;20311;-69
2023/10/07 12:17:05;;;;;;;9.20;3.30;;;;;;;16.35;45.26;100738.38;10442849;28;20227;-69
2023/10/07 12:22:07;;;;;;;7.55;4.05;;;;;;;17.07;44.15;100749.66;10439255;28;20238;-69
2023/10/07 12:27:10;;;;;;;7.53;3.67;;;;;;;16.38;45.06;100789.28;10437944;28;20223;-69
2023/10/07 12:32:12;;;;;;;6.18;3.53;;;;;;;16.37;44.79;100803.81;10435718;28;20223;-69
2023/10/07 12:37:14;;;;;;;5.57;3.55;;;;;;;16.95;44.28;100730.50;10436287;28;20227;-69
2023/10/07 12:42:18;;;;;;;4.80;3.30;;;;;;;17.23;44.18;100701.66;10417147;28;20236;-69
2023/10/07 12:47:21;;;;;;;5.28;3.00;;;;;;;16.61;44.74;100734.09;10398429;28;20598;-69
2023/10/07 12:52:26;;;;;;;5.88;3.65;;;;;;;17.79;43.20;100719.38;10395031;28;20283;-69
2023/10/07 12:57:28;;;;;;;6.10;3.65;;;;;;;16.69;44.58;100743.94;10394221;28;20236;-69
2023/10/07 13:02:30;;;;;;;5.72;3.35;;;;;;;16.70;44.11;100786.97;10419649;28;20244;-69
2023/10/07 13:07:32;;;;;;;5.55;3.30;;;;;;;16.90;44.21;100756.47;10428386;28;20242;-69
2023/10/07 13:12:34;;;;;;;6.35;3.38;;;;;;;17.57;43.45;100714.16;10430883;28;20224;-69
2023/10/07 13:17:36;;;;;;;7.75;3.25;;;;;;;17.79;43.44;100682.31;10429965;28;20328;-69
2023/10/07 13:22:38;;;;;;;6.72;3.13;;;;;;;17.73;43.64;100734.56;10427662;28;20984;-69
2023/10/07 13:27:40;;;;;;;5.68;3.15;;;;;;;17.49;43.71;100744.13;10428692;28;20805;-69
2023/10/07 13:32:52;;;;;;;6.70;3.63;;;;;;;17.31;44.00;100734.75;10423416;28;20233;-69
2023/10/07 13:37:56;;;;;;;6.10;3.38;;;;;;;17.82;43.70;100687.31;10426476;28;20229;-69
2023/10/07 13:42:59;;;;;;;6.30;3.28;;;;;;;18.58;43.24;100634.34;10429136;28;20279;-69
2023/10/07 13:48:03;;;;;;;5.85;3.17;;;;;;;17.70;43.36;100764.78;10425786;28;20224;-69
2023/10/07 13:58:08;;;;;;;8.70;3.35;;;;;;;18.02;43.91;100719.75;10430826;28;20248;-67
2023/10/07 14:03:19;;;;;;;5.60;3.38;;;;;;;18.14;42.83;100700.16;10425623;28;20319;-68
2023/10/07 14:08:25;;;;;;;4.90;3.28;;;;;;;18.28;42.90;100690.94;10427632;28;20263;-67
2023/10/07 14:13:35;;;;;;;7.40;3.03;;;;;;;18.95;41.76;100671.69;10424214;28;20791;-67
2023/10/07 14:18:38;;;;;;;5.95;2.95;;;;;;;18.33;41.65;100699.28;10425375;28;20212;-67
2023/10/07 14:23:40;;;;;;;5.78;3.10;;;;;;;18.19;42.06;100757.22;10417714;28;20733;-67
2023/10/07 14:28:44;;;;;;;3.90;2.70;;;;;;;18.17;42.21;100735.78;10428520;28;20263;-66
2023/10/07 14:33:47;;;;;;;5.30;3.40;;;;;;;18.99;41.13;100691.88;10426299;28;20248;-67
2023/10/07 14:38:50;;;;;;;3.72;2.67;;;;;;;18.27;41.49;100743.44;10424350;28;20728;-67
2023/10/07 14:43:52;;;;;;;5.68;3.10;;;;;;;18.45;41.68;100730.06;10427726;28;20728;-67
2023/10/07 14:48:54;;;;;;;7.32;2.97;;;;;;;18.95;41.19;100672.50;10425316;28;20233;-67
2023/10/07 14:53:55;;;;;;;5.32;2.72;;;;;;;18.07;41.60;100760.56;10425905;28;20306;-67
2023/10/07 14:58:59;;;;;;;5.95;3.28;;;;;;;18.33;40.92;100734.50;10423266;28;20297;-66
2023/10/07 15:04:02;;;;;;;5.07;2.58;;;;;;;18.59;41.36;100714.59;10428180;28;20257;-66
2023/10/07 15:09:07;;;;;;;5.43;3.58;;;;;;;18.35;41.60;100708.00;10424175;28;20726;-67
2023/10/07 15:14:11;;;;;;;7.80;3.00;;;;;;;17.91;41.84;100731.22;10425166;28;20255;-66
2023/10/07 15:19:15;;;;;;;5.45;3.05;;;;;;;19.08;40.73;100639.03;10427715;28;20323;-67
2023/10/07 15:24:16;;;;;;;7.55;3.22;;;;;;;18.42;41.69;100662.78;10425186;28;20239;-67
2023/10/07 15:29:18;;;;;;;5.97;3.30;;;;;;;19.35;40.99;100593.50;10425392;28;20927;-66
2023/10/07 15:34:20;;;;;;;4.68;2.97;;;;;;;18.57;41.99;100642.69;10426801;28;20266;-66
2023/10/07 15:39:23;;;;;;;5.75;3.05;;;;;;;18.82;41.64;100627.28;10426954;28;20980;-67
2023/10/07 15:44:25;;;;;;;6.65;3.42;;;;;;;18.67;41.24;100639.50;10425147;28;20725;-67
2023/10/07 15:49:27;;;;;;;7.13;3.30;;;;;;;18.46;41.49;100676.72;10426277;28;20734;-67
2023/10/07 15:54:29;;;;;;;6.15;3.05;;;;;;;18.30;42.17;100642.81;10431865;28;20703;-67
2023/10/07 15:59:32;;;;;;;6.38;3.50;;;;;;;18.19;41.94;100659.72;10430472;28;20731;-67
2023/10/07 16:04:34;;;;;;;4.97;3.03;;;;;;;18.30;42.11;100631.16;10430417;28;20239;-66
2023/10/07 16:09:36;;;;;;;5.53;3.10;;;;;;;17.66;42.23;100694.00;10433673;28;20246;-67
2023/10/07 16:14:38;;;;;;;5.40;2.67;;;;;;;17.82;42.51;100618.81;10429094;28;20235;-66
2023/10/07 16:19:40;;;;;;;4.80;2.97;;;;;;;18.40;41.79;100610.66;10433029;28;20234;-67
2023/10/07 16:24:42;;;;;;;8.93;3.45;;;;;;;17.68;42.57;100615.28;10429628;28;20243;-66
2023/10/07 16:29:44;;;;;;;4.88;3.20;;;;;;;18.02;42.25;100603.31;10433592;28;20232;-66
2023/10/07 16:34:47;;;;;;;4.32;2.80;;;;;;;16.76;43.70;100680.75;10428296;28;20235;-67
2023/10/07 16:39:51;;;;;;;6.30;3.50;;;;;;;17.89;42.68;100565.47;10430782;28;20224;-67
2023/10/07 16:44:53;;;;;;;4.65;2.63;;;;;;;17.06;43.39;100612.00;10427495;28;20235;-67
2023/10/07 16:49:54;;;;;;;5.18;3.05;;;;;;;17.32;42.99;100573.28;10432527;28;20228;-66
2023/10/07 16:54:56;;;;;;;7.80;5.15;;;;;;;17.48;42.42;100626.13;10426037;28;20611;-67
2023/10/07 16:59:58;;;;;;;6.65;3.78;;;;;;;17.12;42.93;100679.59;10429835;28;20238;-66
2023/10/07 17:05:01;;;;;;;5.82;3.40;;;;;;;16.71;43.81;100601.31;10430320;28;20243;-66
2023/10/07 17:10:08;;;;;;;5.20;3.28;;;;;;;16.79;43.08;100623.56;10431393;28;20235;-66
2023/10/07 17:15:10;;;;;;;7.47;3.70;;;;;;;16.52;44.38;100552.44;10428894;28;20239;-66
2023/10/07 17:20:12;;;;;;;5.70;3.38;;;;;;;16.38;44.05;100593.97;10432183;28;20322;-66
2023/10/07 17:25:14;;;;;;;5.10;3.10;;;;;;;16.13;43.85;100602.59;10425661;28;20237;-67
2023/10/07 17:30:18;;;;;;;5.95;3.05;;;;;;;16.03;44.09;100631.84;10429910;28;20311;-67
2023/10/07 17:35:19;;;;;;;6.53;3.53;;;;;;;15.84;44.24;100619.88;10429092;28;20293;-66
2023/10/07 17:40:23;;;;;;;5.07;3.17;;;;;;;16.41;43.83;100542.25;10431150;28;20227;-66
2023/10/07 17:45:24;;;;;;;5.85;4.10;;;;;;;15.95;44.20;100596.91;10424548;28;20374;-66
2023/10/07 17:50:29;;;;;;;5.50;3.28;;;;;;;16.35;43.26;100564.69;10429941;28;20224;-67
2023/10/07 17:55:31;;;;;;;6.75;3.55;;;;;;;15.52;44.63;100596.03;10426850;28;20620;-66
2023/10/07 18:00:33;;;;;;;3.92;3.10;;;;;;;15.18;44.19;100691.16;10423109;28;20305;-67
2023/10/07 18:05:36;;;;;;;5.27;3.33;;;;;;;15.91;43.82;100561.38;10424953;28;20667;-66
2023/10/07 18:10:38;;;;;;;6.85;3.33;;;;;;;16.03;43.77;100581.38;10426448;28;20319;-66
2023/10/07 18:15:40;;;;;;;6.47;3.60;;;;;;;16.06;43.70;100550.41;10425428;28;20619;-66
2023/10/07 18:20:42;;;;;;;5.47;3.33;;;;;;;16.10;43.50;100572.47;10427138;28;20330;-66
2023/10/07 18:25:46;;;;;;;6.55;3.50;;;;;;;15.50;44.41;100611.56;10424742;28;20236;-66
2023/10/07 18:30:48;;;;;;;6.40;3.20;;;;;;;16.05;42.98;100583.88;10426308;28;20234;-66
2023/10/07 18:35:50;;;;;;;6.00;3.42;;;;;;;15.74;43.51;100611.31;10425079;28;20281;-67
2023/10/07 18:40:52;;;;;;;6.75;3.63;;;;;;;15.70;43.42;100640.56;10425737;28;20297;-66
2023/10/07 18:45:54;;;;;;;5.60;3.30;;;;;;;16.20;42.64;100576.44;10427662;28;20333;-66
2023/10/07 18:51:05;;;;;;;5.00;3.40;;;;;;;15.81;43.04;100664.31;10427557;28;20234;-67
2023/10/07 18:56:07;;;;;;;6.60;3.17;;;;;;;15.76;43.35;100614.63;10424376;28;20227;-66
2023/10/07 19:01:10;;;;;;;5.23;3.27;;;;;;;15.84;42.84;100623.44;10426083;28;20223;-67
2023/10/07 19:06:14;;;;;;;5.57;3.30;;;;;;;15.83;43.31;100586.66;10425678;28;20235;-66
2023/10/07 19:11:17;;;;;;;6.53;3.80;;;;;;;16.09;42.55;100579.72;10428171;28;20316;-67
2023/10/07 19:16:19;;;;;;;6.68;3.53;;;;;;;16.84;41.66;100520.25;10424934;28;20608;-67
2023/10/07 19:21:21;;;;;;;5.57;3.63;;;;;;;16.99;41.28;100530.91;10423901;28;20232;-68
2023/10/07 19:26:24;;;;;;;6.65;3.65;;;;;;;16.85;41.51;100605.69;10426884;28;20322;-69
2023/10/07 19:31:25;;;;;;;9.70;4.55;;;;;;;16.32;41.86;100636.13;10407209;28;20251;-69
2023/10/07 19:36:27;;;;;;;7.82;3.88;;;;;;;16.48;42.27;100572.78;10395680;28;20259;-69
2023/10/07 19:41:29;;;;;;;4.57;3.50;;;;;;;16.29;42.73;100582.50;10395059;28;20260;-70
2023/10/07 19:46:30;;;;;;;6.37;3.57;;;;;;;16.37;42.41;100603.13;10393812;28;20237;-70
2023/10/07 19:51:32;;;;;;;6.07;4.00;;;;;;;15.95;42.82;100694.91;10393586;28;20233;-70
2023/10/07 19:56:34;;;;;;;6.37;3.73;;;;;;;16.34;42.61;100625.94;10383448;28;20243;-67
2023/10/07 20:01:36;;;;;;;6.97;3.43;;;;;;;15.80;43.52;100678.81;10390264;28;20655;-68
2023/10/07 20:06:39;;;;;;;5.23;3.50;;;;;;;15.66;44.00;100675.19;10394841;28;20231;-67
2023/10/07 20:11:41;;;;;;;6.20;4.10;;;;;;;15.90;43.69;100634.47;10396484;28;20316;-68
2023/10/07 20:16:43;;;;;;;6.50;4.00;;;;;;;15.55;44.87;100681.13;10396949;28;20280;-65
2023/10/07 20:21:45;;;;;;;9.57;4.82;;;;;;;15.28;45.24;100698.91;10395079;28;20284;-67
2023/10/07 20:26:47;;;;;;;5.97;3.60;;;;;;;15.45;45.28;100600.53;10387784;28;21061;-67
2023/10/07 20:31:48;;;;;;;5.97;3.87;;;;;;;16.01;44.31;100547.50;10395222;28;20282;-66
2023/10/07 20:36:50;;;;;;;8.00;3.93;;;;;;;15.94;44.60;100543.94;10391127;28;20228;-66
2023/10/07 20:41:52;;;;;;;5.47;4.07;;;;;;;15.80;44.57;100562.78;10423788;28;20231;-66
2023/10/07 20:46:54;;;;;;;9.17;3.80;;;;;;;14.71;45.76;100658.34;10431252;28;20227;-66
2023/10/07 20:51:56;;;;;;;10.07;4.20;;;;;;;16.05;44.43;100536.09;10431499;28;20232;-66
2023/10/07 20:57:01;;;;;;;7.47;4.27;;;;;;;15.70;44.72;100570.41;10428410;28;20281;-66
2023/10/07 21:02:03;;;;;;;5.30;3.90;;;;;;;15.54;45.44;100535.63;10434117;28;20335;-65
2023/10/07 21:07:05;;;;;;;7.60;4.27;;;;;;;15.56;45.28;100568.69;10430327;28;20358;-66
2023/10/07 21:12:07;;;;;;;7.00;4.30;;;;;;;15.28;45.48;100604.53;10432534;28;20226;-68
2023/10/07 21:17:10;;;;;;;9.27;3.93;;;;;;;14.99;46.08;100641.41;10435076;28;20227;-63
2023/10/07 21:22:12;;;;;;;7.67;4.20;;;;;;;15.26;45.27;100609.31;10434766;28;20246;-66
2023/10/07 21:27:13;;;;;;;9.07;4.53;;;;;;;15.78;45.26;100507.38;10430364;28;20233;-66
2023/10/07 21:32:15;;;;;;;7.03;3.93;;;;;;;15.19;46.42;100565.28;10429726;28;20343;-65
2023/10/07 21:37:17;;;;;;;6.00;3.97;;;;;;;14.39;47.43;100625.44;10430935;28;20232;-65
2023/10/07 21:42:18;;;;;;;6.60;4.00;;;;;;;14.99;46.50;100568.66;10431102;28;20619;-66
2023/10/07 21:47:20;;;;;;;7.20;3.80;;;;;;;14.98;46.92;100505.00;10431017;28;20327;-67
2023/10/07 21:52:22;;;;;;;5.70;3.47;;;;;;;14.88;46.94;100558.41;10436615;28;20239;-66
2023/10/07 21:57:24;;;;;;;7.87;4.23;;;;;;;14.22;47.91;100669.72;10432619;28;20328;-66
2023/10/07 22:02:26;;;;;;;8.63;3.93;;;;;;;15.29;46.23;100550.44;10438653;28;20243;-65
2023/10/07 22:07:28;;;;;;;13.63;4.13;;;;;;;14.65;47.13;100648.31;10437297;28;20235;-66
2023/10/07 22:12:29;;;;;;;5.60;3.90;;;;;;;15.21;46.46;100566.75;10437098;28;20254;-66
2023/10/07 22:17:31;;;;;;;8.20;4.00;;;;;;;15.37;46.41;100589.03;10430293;28;20224;-68
2023/10/07 22:22:33;;;;;;;5.23;3.17;;;;;;;15.48;46.24;100607.38;10434483;28;20296;-71
2023/10/07 22:27:36;;;;;;;6.67;3.23;;;;;;;15.48;45.98;100623.56;10429945;28;20236;-68
2023/10/07 22:32:37;;;;;;;7.87;4.30;;;;;;;14.29;47.45;100707.50;10433648;28;20334;-71
2023/10/07 22:37:43;;;;;;;5.97;3.43;;;;;;;15.04;46.58;100576.16;10432992;28;20258;-67
2023/10/07 22:42:44;;;;;;;7.63;3.97;;;;;;;15.09;46.76;100623.06;10436827;28;20236;-67
2023/10/07 22:47:46;;;;;;;5.47;3.77;;;;;;;14.19;48.23;100662.06;10426988;28;20239;-67
2023/10/07 22:52:54;;;;;;;5.53;3.63;;;;;;;14.21;47.90;100627.72;10434967;28;20258;-67
2023/10/07 22:58:00;;;;;;;9.67;4.30;;;;;;;14.59;47.59;100562.88;10431459;28;20729;-67
2023/10/07 23:03:13;;;;;;;9.03;4.53;;;;;;;15.02;47.44;100508.97;10434900;28;20246;-67
2023/10/07 23:08:15;;;;;;;7.93;3.60;;;;;;;15.01;46.68;100571.97;10432284;28;20256;-66
2023/10/07 23:13:24;;;;;;;6.67;3.90;;;;;;;14.49;47.73;100600.91;10433893;28;20235;-67
2023/10/07 23:18:26;;;;;;;5.67;3.43;;;;;;;14.35;47.85;100589.13;10410805;28;20290;-67
2023/10/07 23:23:41;;;;;;;7.00;3.30;;;;;;;14.33;47.94;100575.03;10425579;28;20243;-67
2023/10/07 23:28:43;;;;;;;6.90;3.80;;;;;;;14.27;48.24;100540.78;10422085;28;20239;-66
2023/10/07 23:33:47;;;;;;;7.57;3.53;;;;;;;14.03;48.69;100564.28;10422902;28;20794;-66
2023/10/07 23:38:49;;;;;;;7.83;3.70;;;;;;;14.16;48.91;100507.16;10420205;28;20278;-67
2023/10/07 23:43:53;;;;;;;6.47;3.90;;;;;;;13.62;49.46;100556.75;10426590;28;20619;-65
2023/10/07 23:48:59;;;;;;;5.43;3.57;;;;;;;13.82;49.28;100545.44;10422351;28;20591;-65
2023/10/07 23:54:04;;;;;;;10.40;4.30;;;;;;;13.02;50.27;100590.75;10422567;28;20327;-68
2023/10/07 23:59:09;;;;;;;6.47;4.10;;;;;;;13.10;50.40;100609.47;10418333;28;20235;-66
